All Spectrum Aviation - Van Nuys Airport - KVNY

HOME

Condor Squadron KVNY Webcam

Visit our Electronics Store

Condor Squadron Webcam - Van Nuys Airport - KVNY
Picture taken: Mon, 16 Sep 2019 16:01:20 -0700
YouTube Channel!    Latest Timelapse Movie    Full Size Image    Regular Size Image    

2019/09/16 22:51 KVNY 162251Z 16011KT 10SM CLR 29/04 A2986 RMK AO2 SLP102 T02940044

HOME

Condor Squadron KVNY Webcam

Visit our Electronics Store